sensor_id;sensor_type;location;lat;lon;timestamp;pressure;altitude;pressure_sealevel;temperature;humidity
10646;BME280;5371;49.782;9.932;2023-02-28T00:01:06;100674.78;;;-1.47;100.00
10646;BME280;5371;49.782;9.932;2023-02-28T00:03:33;100680.69;;;-1.55;100.00
10646;BME280;5371;49.782;9.932;2023-02-28T00:06:01;100673.88;;;-1.54;100.00
10646;BME280;5371;49.782;9.932;2023-02-28T00:08:28;100679.94;;;-1.40;100.00
10646;BME280;5371;49.782;9.932;2023-02-28T00:11:00;100678.25;;;-1.35;100.00
10646;BME280;5371;49.782;9.932;2023-02-28T00:13:27;100679.03;;;-1.48;100.00
10646;BME280;5371;49.782;9.932;2023-02-28T00:15:59;100675.69;;;-1.33;100.00
10646;BME280;5371;49.782;9.932;2023-02-28T00:18:26;100676.56;;;-1.33;100.00
10646;BME280;5371;49.782;9.932;2023-02-28T00:20:53;100679.13;;;-1.31;100.00
10646;BME280;5371;49.782;9.932;2023-02-28T00:23:20;100667.06;;;-1.49;100.00
10646;BME280;5371;49.782;9.932;2023-02-28T00:25:48;100673.06;;;-1.48;100.00
10646;BME280;5371;49.782;9.932;2023-02-28T00:28:16;100673.88;;;-1.54;100.00
10646;BME280;5371;49.782;9.932;2023-02-28T00:30:43;100679.88;;;-1.55;100.00
10646;BME280;5371;49.782;9.932;2023-02-28T00:33:10;100674.75;;;-1.52;100.00
10646;BME280;5371;49.782;9.932;2023-02-28T00:35:37;100674.75;;;-1.55;100.00
10646;BME280;5371;49.782;9.932;2023-02-28T00:38:05;100677.31;;;-1.51;100.00
10646;BME280;5371;49.782;9.932;2023-02-28T00:40:34;100680.69;;;-1.58;100.00
10646;BME280;5371;49.782;9.932;2023-02-28T00:43:01;100675.66;;;-1.41;100.00
10646;BME280;5371;49.782;9.932;2023-02-28T00:45:30;100676.47;;;-1.49;100.00
10646;BME280;5371;49.782;9.932;2023-02-28T00:47:57;100673.06;;;-1.48;100.00
10646;BME280;5371;49.782;9.932;2023-02-28T00:50:24;100672.22;;;-1.47;100.00
10646;BME280;5371;49.782;9.932;2023-02-28T00:52:51;100671.31;;;-1.54;100.00
10646;BME280;5371;49.782;9.932;2023-02-28T00:55:19;100667.78;;;-1.70;100.00
10646;BME280;5371;49.782;9.932;2023-02-28T00:57:47;100667.84;;;-1.65;100.00
10646;BME280;5371;49.782;9.932;2023-02-28T01:00:15;100676.34;;;-1.69;100.00
10646;BME280;5371;49.782;9.932;2023-02-28T01:02:43;100678.88;;;-1.71;100.00
10646;BME280;5371;49.782;9.932;2023-02-28T01:05:10;100667.78;;;-1.74;100.00
10646;BME280;5371;49.782;9.932;2023-02-28T01:07:37;100670.34;;;-1.71;100.00
10646;BME280;5371;49.782;9.932;2023-02-28T01:10:05;100674.75;;;-1.55;100.00
10646;BME280;5371;49.782;9.932;2023-02-28T01:12:32;100669.41;;;-1.84;100.00
10646;BME280;5371;49.782;9.932;2023-02-28T01:14:59;100669.53;;;-1.67;100.00
10646;BME280;5371;49.782;9.932;2023-02-28T01:17:26;100666.09;;;-1.69;100.00
10646;BME280;5371;49.782;9.932;2023-02-28T01:19:55;100664.41;;;-1.67;100.00
10646;BME280;5371;49.782;9.932;2023-02-28T01:22:24;100661.00;;;-1.63;100.00
10646;BME280;5371;49.782;9.932;2023-02-28T01:24:51;100658.34;;;-1.78;100.00
10646;BME280;5371;49.782;9.932;2023-02-28T01:27:18;100654.94;;;-1.73;100.00
10646;BME280;5371;49.782;9.932;2023-02-28T01:29:45;100645.53;;;-1.78;100.00
10646;BME280;5371;49.782;9.932;2023-02-28T01:32:12;100647.28;;;-1.71;100.00
10646;BME280;5371;49.782;9.932;2023-02-28T01:34:39;100653.22;;;-1.77;100.00
10646;BME280;5371;49.782;9.932;2023-02-28T01:37:07;100654.81;;;-1.94;100.00
10646;BME280;5371;49.782;9.932;2023-02-28T01:39:34;100646.25;;;-1.96;100.00
10646;BME280;5371;49.782;9.932;2023-02-28T01:42:03;100659.09;;;-1.93;100.00
10646;BME280;5371;49.782;9.932;2023-02-28T01:44:55;100653.19;;;-1.83;100.00
10646;BME280;5371;49.782;9.932;2023-02-28T01:47:25;100648.84;;;-1.95;100.00
10646;BME280;5371;49.782;9.932;2023-02-28T01:49:56;100640.25;;;-1.98;100.00
10646;BME280;5371;49.782;9.932;2023-02-28T01:52:26;100643.75;;;-1.92;100.00
10646;BME280;5371;49.782;9.932;2023-02-28T01:54:55;100637.69;;;-1.98;100.00
10646;BME280;5371;49.782;9.932;2023-02-28T01:57:27;100642.00;;;-1.94;100.00
10646;BME280;5371;49.782;9.932;2023-02-28T01:59:58;100632.59;;;-1.95;100.00
10646;BME280;5371;49.782;9.932;2023-02-28T02:02:27;100627.31;;;-2.16;100.00
10646;BME280;5371;49.782;9.932;2023-02-28T02:04:58;100636.78;;;-2.11;100.00
10646;BME280;5371;49.782;9.932;2023-02-28T02:07:32;100633.22;;;-2.25;100.00
10646;BME280;5371;49.782;9.932;2023-02-28T02:10:02;100628.13;;;-2.22;100.00
10646;BME280;5371;49.782;9.932;2023-02-28T02:12:40;100628.31;;;-1.96;100.00
10646;BME280;5371;49.782;9.932;2023-02-28T02:15:12;100619.66;;;-2.15;100.00
10646;BME280;5371;49.782;9.932;2023-02-28T02:17:45;100624.84;;;-2.06;100.00
10646;BME280;5371;49.782;9.932;2023-02-28T02:20:37;100632.47;;;-2.15;100.00
10646;BME280;5371;49.782;9.932;2023-02-28T02:32:58;100617.84;;;-2.28;100.00
10646;BME280;5371;49.782;9.932;2023-02-28T02:35:34;100612.69;;;-2.31;100.00
10646;BME280;5371;49.782;9.932;2023-02-28T02:38:08;100611.88;;;-2.29;100.00
10646;BME280;5371;49.782;9.932;2023-02-28T02:40:43;100614.41;;;-2.27;100.00
10646;BME280;5371;49.782;9.932;2023-02-28T02:43:17;100617.91;;;-2.22;100.00
10646;BME280;5371;49.782;9.932;2023-02-28T02:45:49;100615.34;;;-2.17;100.00
10646;BME280;5371;49.782;9.932;2023-02-28T02:48:25;100615.38;;;-2.19;100.00
10646;BME280;5371;49.782;9.932;2023-02-28T02:50:59;100616.25;;;-2.12;100.00
10646;BME280;5371;49.782;9.932;2023-02-28T02:53:30;100614.56;;;-2.09;100.00
10646;BME280;5371;49.782;9.932;2023-02-28T02:56:01;100610.97;;;-2.32;100.00
10646;BME280;5371;49.782;9.932;2023-02-28T02:58:34;100614.50;;;-2.21;100.00
10646;BME280;5371;49.782;9.932;2023-02-28T03:01:10;100616.13;;;-2.31;100.00
10646;BME280;5371;49.782;9.932;2023-02-28T03:03:39;100625.59;;;-2.17;100.00
10646;BME280;5371;49.782;9.932;2023-02-28T03:06:08;100621.34;;;-2.15;100.00
10646;BME280;5371;49.782;9.932;2023-02-28T03:08:37;100618.81;;;-2.12;100.00
10646;BME280;5371;49.782;9.932;2023-02-28T03:11:05;100617.91;;;-2.22;100.00
10646;BME280;5371;49.782;9.932;2023-02-28T03:13:48;100625.59;;;-2.20;100.00
10646;BME280;5371;49.782;9.932;2023-02-28T03:16:30;100623.06;;;-2.19;100.00
10646;BME280;5371;49.782;9.932;2023-02-28T03:19:08;100624.66;;;-2.32;100.00
10646;BME280;5371;49.782;9.932;2023-02-28T03:21:46;100622.19;;;-2.18;100.00
10646;BME280;5371;49.782;9.932;2023-02-28T03:24:20;100617.06;;;-2.21;100.00
10646;BME280;5371;49.782;9.932;2023-02-28T03:26:54;100619.56;;;-2.24;100.00
10646;BME280;5371;49.782;9.932;2023-02-28T03:29:24;100618.72;;;-2.24;100.00
10646;BME280;5371;49.782;9.932;2023-02-28T03:31:58;100622.97;;;-2.28;100.00
10646;BME280;5371;49.782;9.932;2023-02-28T03:34:31;100614.34;;;-2.39;100.00
10646;BME280;5371;49.782;9.932;2023-02-28T03:37:04;100616.16;;;-2.24;100.00
10646;BME280;5371;49.782;9.932;2023-02-28T03:39:36;100621.09;;;-2.46;100.00
10646;BME280;5371;49.782;9.932;2023-02-28T03:42:08;100615.28;;;-2.30;100.00
10646;BME280;5371;49.782;9.932;2023-02-28T03:44:39;100626.22;;;-2.44;100.00
10646;BME280;5371;49.782;9.932;2023-02-28T03:47:10;100631.44;;;-2.38;100.00
10646;BME280;5371;49.782;9.932;2023-02-28T03:49:43;100633.03;;;-2.49;100.00
10646;BME280;5371;49.782;9.932;2023-02-28T03:52:14;100626.31;;;-2.35;100.00
10646;BME280;5371;49.782;9.932;2023-02-28T03:54:48;100628.00;;;-2.40;100.00
10646;BME280;5371;49.782;9.932;2023-02-28T03:57:23;100633.16;;;-2.33;100.00
10646;BME280;5371;49.782;9.932;2023-02-28T03:59:56;100636.59;;;-2.32;100.00
10646;BME280;5371;49.782;9.932;2023-02-28T04:02:25;100631.34;;;-2.44;100.00
10646;BME280;5371;49.782;9.932;2023-02-28T04:04:53;100626.94;;;-2.60;100.00
10646;BME280;5371;49.782;9.932;2023-02-28T04:07:21;100633.03;;;-2.49;100.00
10646;BME280;5371;49.782;9.932;2023-02-28T04:09:48;100634.78;;;-2.42;100.00
10646;BME280;5371;49.782;9.932;2023-02-28T04:12:15;100639.09;;;-2.37;100.00
10646;BME280;5371;49.782;9.932;2023-02-28T04:14:42;100637.97;;;-2.69;100.00
10646;BME280;5371;49.782;9.932;2023-02-28T04:17:09;100630.41;;;-2.54;100.00
10646;BME280;5371;49.782;9.932;2023-02-28T04:19:36;100633.09;;;-2.42;100.00
10646;BME280;5371;49.782;9.932;2023-02-28T04:22:03;100638.94;;;-2.53;100.00
10646;BME280;5371;49.782;9.932;2023-02-28T04:24:32;100635.69;;;-2.39;100.00
10646;BME280;5371;49.782;9.932;2023-02-28T04:27:00;100630.50;;;-2.43;100.00
10646;BME280;5371;49.782;9.932;2023-02-28T04:29:28;100631.38;;;-2.41;100.00
10646;BME280;5371;49.782;9.932;2023-02-28T04:31:56;100633.13;;;-2.40;100.00
10646;BME280;5371;49.782;9.932;2023-02-28T04:34:25;100632.28;;;-2.38;100.00
10646;BME280;5371;49.782;9.932;2023-02-28T04:36:54;100628.88;;;-2.34;100.00
10646;BME280;5371;49.782;9.932;2023-02-28T04:39:21;100634.75;;;-2.45;100.00
10646;BME280;5371;49.782;9.932;2023-02-28T04:41:50;100633.88;;;-2.49;100.00
10646;BME280;5371;49.782;9.932;2023-02-28T04:44:17;100636.03;;;-2.91;100.00
10646;BME280;5371;49.782;9.932;2023-02-28T04:46:44;100640.47;;;-2.72;100.00
10646;BME280;5371;49.782;9.932;2023-02-28T04:49:11;100632.03;;;-2.65;100.00
10646;BME280;5371;49.782;9.932;2023-02-28T04:51:39;100632.94;;;-2.60;100.00
10646;BME280;5371;49.782;9.932;2023-02-28T04:54:06;100638.50;;;-2.99;100.00
10646;BME280;5371;49.782;9.932;2023-02-28T04:56:34;100631.91;;;-2.77;100.00
10646;BME280;5371;49.782;9.932;2023-02-28T04:59:02;100641.22;;;-2.85;100.00
10646;BME280;5371;49.782;9.932;2023-02-28T05:01:31;100633.47;;;-2.91;100.00
10646;BME280;5371;49.782;9.932;2023-02-28T05:04:03;100642.13;;;-2.79;100.00
10646;BME280;5371;49.782;9.932;2023-02-28T05:06:32;100638.50;;;-2.97;100.00
10646;BME280;5371;49.782;9.932;2023-02-28T05:08:59;100637.84;;;-2.83;100.00
10646;BME280;5371;49.782;9.932;2023-02-28T05:11:29;100637.06;;;-2.74;100.00
10646;BME280;5371;49.782;9.932;2023-02-28T05:14:02;100638.25;;;-3.22;100.00
10646;BME280;5371;49.782;9.932;2023-02-28T05:16:29;100645.94;;;-3.20;100.00
10646;BME280;5371;49.782;9.932;2023-02-28T05:18:56;100642.50;;;-3.22;100.00
10646;BME280;5371;49.782;9.932;2023-02-28T05:21:27;100641.53;;;-3.30;100.00
10646;BME280;5371;49.782;9.932;2023-02-28T05:23:57;100637.63;;;-3.01;100.00
10646;BME280;5371;49.782;9.932;2023-02-28T05:26:24;100652.31;;;-2.82;100.00
10646;BME280;5371;49.782;9.932;2023-02-28T05:28:52;100651.06;;;-3.19;100.00
10646;BME280;5371;49.782;9.932;2023-02-28T05:31:20;100652.91;;;-3.06;100.00
10646;BME280;5371;49.782;9.932;2023-02-28T05:33:47;100657.88;;;-3.19;100.00
10646;BME280;5371;49.782;9.932;2023-02-28T05:36:14;100657.94;;;-3.13;100.00
10646;BME280;5371;49.782;9.932;2023-02-28T05:38:41;100662.25;;;-3.08;100.00
10646;BME280;5371;49.782;9.932;2023-02-28T05:41:09;100664.38;;;-3.43;100.00
10646;BME280;5371;49.782;9.932;2023-02-28T05:43:36;100668.09;;;-3.19;100.00
10646;BME280;5371;49.782;9.932;2023-02-28T05:46:04;100663.22;;;-2.98;100.00
10646;BME280;5371;49.782;9.932;2023-02-28T05:48:34;100666.00;;;-2.80;100.00
10646;BME280;5371;49.782;9.932;2023-02-28T05:51:01;100671.13;;;-2.78;100.00
10646;BME280;5371;49.782;9.932;2023-02-28T05:53:29;100670.34;;;-2.71;100.00
10646;BME280;5371;49.782;9.932;2023-02-28T05:55:57;100666.41;;;-2.40;100.00
10646;BME280;5371;49.782;9.932;2023-02-28T05:58:24;100662.09;;;-1.19;100.00
10646;BME280;5371;49.782;9.932;2023-02-28T06:00:54;100662.78;;;-1.52;100.00
10646;BME280;5371;49.782;9.932;2023-02-28T06:03:21;100664.69;;;-1.13;100.00
10646;BME280;5371;49.782;9.932;2023-02-28T06:05:49;100668.75;;;-1.53;100.00
10646;BME280;5371;49.782;9.932;2023-02-28T06:08:17;100669.88;;;-0.97;100.00
10646;BME280;5371;49.782;9.932;2023-02-28T06:10:44;100672.50;;;-0.76;100.00
10646;BME280;5371;49.782;9.932;2023-02-28T06:13:11;100677.72;;;-2.14;100.00
10646;BME280;5371;49.782;9.932;2023-02-28T06:15:38;100678.69;;;-1.98;100.00
10646;BME280;5371;49.782;9.932;2023-02-28T06:18:05;100688.13;;;-1.94;100.00
10646;BME280;5371;49.782;9.932;2023-02-28T06:20:32;100688.03;;;-2.06;100.00
10646;BME280;5371;49.782;9.932;2023-02-28T06:23:01;100687.09;;;-2.19;100.00
10646;BME280;5371;49.782;9.932;2023-02-28T06:25:28;100682.88;;;-2.08;100.00
10646;BME280;5371;49.782;9.932;2023-02-28T06:27:55;100685.31;;;-2.23;100.00
10646;BME280;5371;49.782;9.932;2023-02-28T06:30:22;100680.34;;;-2.06;100.00
10646;BME280;5371;49.782;9.932;2023-02-28T06:32:53;100694.88;;;-2.05;100.00
10646;BME280;5371;49.782;9.932;2023-02-28T06:35:21;100685.34;;;-2.21;100.00
10646;BME280;5371;49.782;9.932;2023-02-28T06:37:48;100689.72;;;-2.07;100.00
10646;BME280;5371;49.782;9.932;2023-02-28T06:40:16;100693.91;;;-2.18;100.00
10646;BME280;5371;49.782;9.932;2023-02-28T06:42:43;100698.25;;;-2.08;100.00
10646;BME280;5371;49.782;9.932;2023-02-28T06:45:11;100699.97;;;-2.10;100.00
10646;BME280;5371;49.782;9.932;2023-02-28T06:47:39;100703.22;;;-2.29;100.00
10646;BME280;5371;49.782;9.932;2023-02-28T06:50:08;100704.97;;;-2.23;100.00
10646;BME280;5371;49.782;9.932;2023-02-28T06:52:35;100708.50;;;-2.08;100.00
10646;BME280;5371;49.782;9.932;2023-02-28T06:55:04;100712.91;;;-1.95;100.00
10646;BME280;5371;49.782;9.932;2023-02-28T06:57:33;100707.84;;;-1.85;100.00
10646;BME280;5371;49.782;9.932;2023-02-28T07:00:03;100712.94;;;-1.89;100.00
10646;BME280;5371;49.782;9.932;2023-02-28T07:02:33;100713.97;;;-1.64;100.00
10646;BME280;5371;49.782;9.932;2023-02-28T07:05:00;100710.63;;;-1.52;100.00
10646;BME280;5371;49.782;9.932;2023-02-28T07:07:27;100710.66;;;-1.49;100.00
10646;BME280;5371;49.782;9.932;2023-02-28T07:09:54;100714.22;;;-1.23;100.00
10646;BME280;5371;49.782;9.932;2023-02-28T07:12:21;100712.44;;;-1.40;100.00
10646;BME280;5371;49.782;9.932;2023-02-28T07:14:49;100717.56;;;-1.39;100.00
10646;BME280;5371;49.782;9.932;2023-02-28T07:17:16;100721.91;;;-1.24;100.00
10646;BME280;5371;49.782;9.932;2023-02-28T07:19:43;100719.31;;;-1.33;100.00
10646;BME280;5371;49.782;9.932;2023-02-28T07:22:10;100715.13;;;-1.15;100.00
10646;BME280;5371;49.782;9.932;2023-02-28T07:24:37;100714.38;;;-0.89;100.00
10646;BME280;5371;49.782;9.932;2023-02-28T07:27:04;100712.81;;;-0.46;99.05
10646;BME280;5371;49.782;9.932;2023-02-28T07:29:32;100706.84;;;-0.33;96.78
10646;BME280;5371;49.782;9.932;2023-02-28T07:32:00;100723.16;;;-0.13;95.40
10646;BME280;5371;49.782;9.932;2023-02-28T07:34:27;100717.13;;;-0.07;94.39
10646;BME280;5371;49.782;9.932;2023-02-28T07:36:54;100710.28;;;-0.17;94.83
10646;BME280;5371;49.782;9.932;2023-02-28T07:39:22;100719.72;;;0.25;93.75
10646;BME280;5371;49.782;9.932;2023-02-28T07:41:49;100716.13;;;1.00;88.37
10646;BME280;5371;49.782;9.932;2023-02-28T07:44:16;100719.38;;;1.42;84.26
10646;BME280;5371;49.782;9.932;2023-02-28T07:46:43;100718.53;;;1.41;82.64
10646;BME280;5371;49.782;9.932;2023-02-28T07:49:11;100726.44;;;0.91;87.12
10646;BME280;5371;49.782;9.932;2023-02-28T07:51:38;100728.91;;;1.20;84.53
10646;BME280;5371;49.782;9.932;2023-02-28T07:54:05;100721.00;;;1.61;82.90
10646;BME280;5371;49.782;9.932;2023-02-28T07:56:32;100718.25;;;1.88;80.65
10646;BME280;5371;49.782;9.932;2023-02-28T07:58:59;100722.41;;;2.05;79.29
10646;BME280;5371;49.782;9.932;2023-02-28T08:01:27;100727.72;;;1.83;80.52
10646;BME280;5371;49.782;9.932;2023-02-28T08:03:54;100724.22;;;1.95;78.32
10646;BME280;5371;49.782;9.932;2023-02-28T08:06:24;100725.31;;;1.58;84.14
10646;BME280;5371;49.782;9.932;2023-02-28T08:08:52;100719.59;;;2.35;77.46
10646;BME280;5371;49.782;9.932;2023-02-28T08:11:21;100717.78;;;3.21;71.55
10646;BME280;5371;49.782;9.932;2023-02-28T08:13:48;100720.47;;;3.14;71.07
10646;BME280;5371;49.782;9.932;2023-02-28T08:16:16;100727.22;;;3.27;69.61
10646;BME280;5371;49.782;9.932;2023-02-28T08:18:48;100719.72;;;3.04;71.21
10646;BME280;5371;49.782;9.932;2023-02-28T08:21:15;100722.72;;;3.41;69.64
10646;BME280;5371;49.782;9.932;2023-02-28T08:23:43;100719.16;;;3.50;68.90
10646;BME280;5371;49.782;9.932;2023-02-28T08:26:10;100721.97;;;3.30;69.16
10646;BME280;5371;49.782;9.932;2023-02-28T08:28:37;100715.53;;;3.61;67.95
10646;BME280;5371;49.782;9.932;2023-02-28T08:31:08;100720.69;;;2.97;69.39
10646;BME280;5371;49.782;9.932;2023-02-28T08:33:36;100715.94;;;4.46;63.30
10646;BME280;5371;49.782;9.932;2023-02-28T08:36:05;100719.06;;;4.63;60.84
10646;BME280;5371;49.782;9.932;2023-02-28T08:38:32;100717.97;;;5.19;59.68
10646;BME280;5371;49.782;9.932;2023-02-28T08:41:02;100715.78;;;4.55;59.49
10646;BME280;5371;49.782;9.932;2023-02-28T08:43:31;100712.94;;;4.67;60.62
10646;BME280;5371;49.782;9.932;2023-02-28T08:45:58;100712.53;;;5.32;57.86
10646;BME280;5371;49.782;9.932;2023-02-28T08:48:26;100708.94;;;4.51;61.85
10646;BME280;5371;49.782;9.932;2023-02-28T08:50:57;100716.03;;;5.29;57.97
10646;BME280;5371;49.782;9.932;2023-02-28T08:53:24;100711.09;;;5.57;56.39
10646;BME280;5371;49.782;9.932;2023-02-28T08:56:00;100701.97;;;6.16;54.27
10646;BME280;5371;49.782;9.932;2023-02-28T08:58:27;100697.31;;;5.95;55.51
10646;BME280;5371;49.782;9.932;2023-02-28T09:00:55;100711.25;;;5.51;54.41
10646;BME280;5371;49.782;9.932;2023-02-28T09:03:22;100710.75;;;5.35;56.53
10646;BME280;5371;49.782;9.932;2023-02-28T09:05:54;100709.09;;;4.42;60.09
10646;BME280;5371;49.782;9.932;2023-02-28T09:08:21;100705.16;;;5.12;57.73
10646;BME280;5371;49.782;9.932;2023-02-28T09:10:48;100703.06;;;5.69;55.69
10646;BME280;5371;49.782;9.932;2023-02-28T09:13:16;100697.47;;;5.86;54.27
10646;BME280;5371;49.782;9.932;2023-02-28T09:15:44;100696.31;;;6.00;53.02
10646;BME280;5371;49.782;9.932;2023-02-28T09:18:11;100702.09;;;4.93;56.43
10646;BME280;5371;49.782;9.932;2023-02-28T09:20:38;100695.22;;;6.45;52.09
10646;BME280;5371;49.782;9.932;2023-02-28T09:23:06;100707.38;;;5.30;56.81
10646;BME280;5371;49.782;9.932;2023-02-28T09:25:33;100697.00;;;6.07;52.12
10646;BME280;5371;49.782;9.932;2023-02-28T09:28:00;100694.78;;;6.27;50.74
10646;BME280;5371;49.782;9.932;2023-02-28T09:30:29;100696.34;;;5.60;52.48
10646;BME280;5371;49.782;9.932;2023-02-28T09:32:57;100695.31;;;6.06;52.02
10646;BME280;5371;49.782;9.932;2023-02-28T09:35:24;100698.88;;;5.63;52.01
10646;BME280;5371;49.782;9.932;2023-02-28T09:37:52;100704.25;;;5.14;55.46
10646;BME280;5371;49.782;9.932;2023-02-28T09:40:21;100700.75;;;5.17;54.39
10646;BME280;5371;49.782;9.932;2023-02-28T09:42:51;100696.59;;;5.88;51.66
10646;BME280;5371;49.782;9.932;2023-02-28T09:45:22;100703.59;;;5.83;50.76
10646;BME280;5371;49.782;9.932;2023-02-28T09:47:54;100701.03;;;4.09;54.24
10646;BME280;5371;49.782;9.932;2023-02-28T09:50:31;100709.88;;;5.35;50.83
10646;BME280;5371;49.782;9.932;2023-02-28T09:53:03;100714.31;;;5.28;52.29
10646;BME280;5371;49.782;9.932;2023-02-28T09:55:37;100699.97;;;5.53;50.78
10646;BME280;5371;49.782;9.932;2023-02-28T09:58:11;100703.63;;;5.45;51.37
10646;BME280;5371;49.782;9.932;2023-02-28T10:00:42;100717.88;;;5.24;50.44
10646;BME280;5371;49.782;9.932;2023-02-28T10:03:27;100709.84;;;5.36;49.27
10646;BME280;5371;49.782;9.932;2023-02-28T10:05:59;100702.03;;;6.13;48.19
10646;BME280;5371;49.782;9.932;2023-02-28T10:08:36;100717.34;;;5.88;47.85
10646;BME280;5371;49.782;9.932;2023-02-28T10:11:11;100716.22;;;6.00;47.88
10646;BME280;5371;49.782;9.932;2023-02-28T10:13:47;100713.41;;;5.71;48.22
10646;BME280;5371;49.782;9.932;2023-02-28T10:16:24;100718.00;;;5.98;48.09
10646;BME280;5371;49.782;9.932;2023-02-28T10:18:57;100713.97;;;5.83;49.16
10646;BME280;5371;49.782;9.932;2023-02-28T10:21:29;100700.13;;;6.86;45.01
10646;BME280;5371;49.782;9.932;2023-02-28T10:24:03;100698.03;;;6.35;45.60
10646;BME280;5371;49.782;9.932;2023-02-28T10:26:32;100704.63;;;6.47;45.63
10646;BME280;5371;49.782;9.932;2023-02-28T10:29:00;100711.69;;;6.44;46.62
10646;BME280;5371;49.782;9.932;2023-02-28T10:31:28;100701.34;;;6.41;46.13
10646;BME280;5371;49.782;9.932;2023-02-28T10:33:57;100701.44;;;6.37;46.39
10646;BME280;5371;49.782;9.932;2023-02-28T10:36:24;100698.06;;;7.58;44.01
10646;BME280;5371;49.782;9.932;2023-02-28T10:38:51;100699.16;;;7.78;43.07
10646;BME280;5371;49.782;9.932;2023-02-28T10:41:28;100697.63;;;6.83;44.83
10646;BME280;5371;49.782;9.932;2023-02-28T10:44:14;100681.34;;;7.93;42.16
10646;BME280;5371;49.782;9.932;2023-02-28T10:46:42;100699.91;;;7.54;42.81
10646;BME280;5371;49.782;9.932;2023-02-28T10:49:20;100691.88;;;7.89;41.80
10646;BME280;5371;49.782;9.932;2023-02-28T10:51:52;100692.31;;;7.74;42.40
10646;BME280;5371;49.782;9.932;2023-02-28T10:54:22;100696.50;;;7.52;41.66
10646;BME280;5371;49.782;9.932;2023-02-28T10:57:11;100695.69;;;6.26;45.54
10646;BME280;5371;49.782;9.932;2023-02-28T10:59:41;100699.47;;;5.75;47.67
10646;BME280;5371;49.782;9.932;2023-02-28T11:02:31;100692.19;;;5.53;48.22
10646;BME280;5371;49.782;9.932;2023-02-28T11:05:00;100700.16;;;5.44;48.89
10646;BME280;5371;49.782;9.932;2023-02-28T11:07:28;100704.63;;;5.38;49.46
10646;BME280;5371;49.782;9.932;2023-02-28T11:09:57;100697.19;;;5.61;49.28
10646;BME280;5371;49.782;9.932;2023-02-28T11:12:27;100691.47;;;5.07;50.92
10646;BME280;5371;49.782;9.932;2023-02-28T11:14:57;100692.03;;;4.78;51.83
10646;BME280;5371;49.782;9.932;2023-02-28T11:17:27;100706.69;;;4.79;52.97
10646;BME280;5371;49.782;9.932;2023-02-28T11:19:56;100703.59;;;4.60;53.23
10646;BME280;5371;49.782;9.932;2023-02-28T11:22:28;100701.31;;;4.43;53.33
10646;BME280;5371;49.782;9.932;2023-02-28T11:24:57;100701.19;;;4.00;56.02
10646;BME280;5371;49.782;9.932;2023-02-28T11:27:45;100689.03;;;4.04;55.97
10646;BME280;5371;49.782;9.932;2023-02-28T11:30:24;100696.94;;;3.95;57.04
10646;BME280;5371;49.782;9.932;2023-02-28T11:32:52;100702.09;;;4.47;54.96
10646;BME280;5371;49.782;9.932;2023-02-28T11:35:24;100702.31;;;4.35;55.05
10646;BME280;5371;49.782;9.932;2023-02-28T11:37:54;100695.53;;;4.74;53.33
10646;BME280;5371;49.782;9.932;2023-02-28T11:40:28;100691.97;;;4.81;52.40
10646;BME280;5371;49.782;9.932;2023-02-28T11:43:07;100700.28;;;4.97;53.08
10646;BME280;5371;49.782;9.932;2023-02-28T11:45:45;100695.19;;;4.92;52.50
10646;BME280;5371;49.782;9.932;2023-02-28T11:48:21;100697.88;;;4.89;54.27
10646;BME280;5371;49.782;9.932;2023-02-28T11:51:00;100695.13;;;4.97;52.96
10646;BME280;5371;49.782;9.932;2023-02-28T11:53:48;100698.44;;;5.03;51.35
10646;BME280;5371;49.782;9.932;2023-02-28T11:56:24;100695.16;;;4.94;51.79
10646;BME280;5371;49.782;9.932;2023-02-28T11:59:02;100700.13;;;4.60;52.14
10646;BME280;5371;49.782;9.932;2023-02-28T12:01:41;100695.97;;;4.51;52.94
10646;BME280;5371;49.782;9.932;2023-02-28T12:04:24;100693.06;;;4.68;52.26
10646;BME280;5371;49.782;9.932;2023-02-28T12:06:58;100691.53;;;5.02;50.92
10646;BME280;5371;49.782;9.932;2023-02-28T12:09:46;100689.31;;;5.27;50.44
10646;BME280;5371;49.782;9.932;2023-02-28T12:12:29;100679.28;;;5.50;49.76
10646;BME280;5371;49.782;9.932;2023-02-28T12:15:13;100688.41;;;5.28;49.66
10646;BME280;5371;49.782;9.932;2023-02-28T12:17:51;100682.59;;;4.74;51.41
10646;BME280;5371;49.782;9.932;2023-02-28T12:20:30;100680.84;;;4.74;51.03
10646;BME280;5371;49.782;9.932;2023-02-28T12:23:15;100685.63;;;4.96;50.31
10646;BME280;5371;49.782;9.932;2023-02-28T12:26:00;100677.25;;;5.24;49.49
10646;BME280;5371;49.782;9.932;2023-02-28T12:28:32;100667.63;;;4.45;52.74
10646;BME280;5371;49.782;9.932;2023-02-28T12:31:04;100677.28;;;4.81;52.02
10646;BME280;5371;49.782;9.932;2023-02-28T12:33:40;100673.69;;;4.44;53.35
10646;BME280;5371;49.782;9.932;2023-02-28T12:36:11;100677.16;;;4.43;53.87
10646;BME280;5371;49.782;9.932;2023-02-28T12:38:44;100671.41;;;4.27;54.27
10646;BME280;5371;49.782;9.932;2023-02-28T12:41:15;100665.69;;;4.08;55.33
10646;BME280;5371;49.782;9.932;2023-02-28T12:43:45;100669.25;;;4.49;54.52
10646;BME280;5371;49.782;9.932;2023-02-28T12:46:18;100661.94;;;4.25;55.09
10646;BME280;5371;49.782;9.932;2023-02-28T12:48:48;100658.84;;;4.04;55.10
10646;BME280;5371;49.782;9.932;2023-02-28T12:51:17;100663.19;;;4.02;56.73
10646;BME280;5371;49.782;9.932;2023-02-28T12:53:54;100663.69;;;4.23;54.74
10646;BME280;5371;49.782;9.932;2023-02-28T12:56:33;100666.91;;;4.37;54.64
10646;BME280;5371;49.782;9.932;2023-02-28T12:59:11;100662.78;;;4.27;55.21
10646;BME280;5371;49.782;9.932;2023-02-28T13:01:55;100659.34;;;4.25;55.20
10646;BME280;5371;49.782;9.932;2023-02-28T13:04:52;100666.00;;;4.38;55.50
10646;BME280;5371;49.782;9.932;2023-02-28T13:07:56;100648.97;;;4.28;55.22
10646;BME280;5371;49.782;9.932;2023-02-28T13:10:38;100657.69;;;4.68;54.57
10646;BME280;5371;49.782;9.932;2023-02-28T13:13:14;100649.69;;;4.80;53.02
10646;BME280;5371;49.782;9.932;2023-02-28T13:16:00;100662.28;;;4.54;53.92
10646;BME280;5371;49.782;9.932;2023-02-28T13:18:30;100655.25;;;4.59;54.54
10646;BME280;5371;49.782;9.932;2023-02-28T13:20:59;100648.69;;;4.41;54.54
10646;BME280;5371;49.782;9.932;2023-02-28T13:23:39;100647.59;;;4.55;54.83
10646;BME280;5371;49.782;9.932;2023-02-28T13:26:07;100650.28;;;4.48;55.02
10646;BME280;5371;49.782;9.932;2023-02-28T13:29:28;100641.63;;;4.51;54.86